Flight Track Log - Related Links

Times and Time Zones

All times are in EDT time to prevent confusion due to time zone crossing. See the SWA378 flight status page for this flight to view local times or setup timezone preferences in your user account.

Time Position Orientation Groundspeed Altitude Reporting Facility
EDT Latitude Longitude Course Direction KTS MPH feet Rate Location/Type
Tue 10:34:29 PM 39.1500 -76.6500 109° East 150 173 1,900  Level Potomac TRACON
Tue 10:36:35 PM 39.1161 -76.5225 109° East 179 206 8,300 3,016 Climbing Washington Center
Tue 10:37:32 PM 39.1272 -76.4264 81° East 220 253 11,100 3,077 Climbing Washington Center
Tue 10:38:32 PM 39.1383 -76.3114 83° East 290 334 14,300 3,500 Climbing Washington Center
Tue 10:39:32 PM 39.1328 -76.1883 93° East 312 359 18,100 3,350 Climbing Washington Center
Tue 10:40:32 PM 39.1272 -76.0544 93° East 327 376 21,000 2,182 Climbing Washington Center
Tue 10:41:33 PM 39.1650 -75.9397 67° East 333 383 22,500 976 Climbing Washington Center
Tue 10:42:35 PM 39.2319 -75.8300 52° Northeast 355 409 23,000 1,686 Climbing Washington Center
Tue 10:43:34 PM 39.3114 -75.7283 45° Northeast 375 432 25,900 2,874 Climbing Washington Center
Tue 10:44:34 PM 39.3886 -75.6319 44° Northeast 375 432 28,700 1,576 Climbing Washington Center
Tue 10:45:32 PM 39.4636 -75.5297 46° Northeast 380 437 29,000 110 Climbing Washington Center
Tue 10:47:17 PM 39.5903 -75.3667 45° Northeast 376 433 29,000  Level New York Center
Tue 10:48:19 PM 39.6672 -75.2667 45° Northeast 381 438 29,000  Level New York Center
Tue 10:49:18 PM 39.7489 -75.1450 49° Northeast 386 444 29,000  Level New York Center
Tue 10:50:18 PM 39.8236 -75.0389 47° Northeast 397 457 29,000  Level New York Center
Tue 10:51:19 PM 39.8961 -74.9350 48° Northeast 397 457 29,000  Level New York Center
Tue 10:52:17 PM 39.9553 -74.8519 47° Northeast 397 457 29,000  Level New York Center
Tue 10:53:18 PM 40.0408 -74.7347 46° Northeast 397 457 29,000  Level New York Center
Tue 10:54:17 PM 40.1150 -74.6306 47° Northeast 397 457 29,000  Level New York Center
Tue 10:55:18 PM 40.1872 -74.5231 49° Northeast 397 457 29,000  Level New York Center
Tue 10:56:18 PM 40.2806 -74.4111 42° Northeast 402 463 29,000  Level New York Center
Tue 10:58:03 PM 40.4353 -74.2450 39° Northeast 396 456 29,000  Level Boston Center
Tue 10:59:03 PM 40.5222 -74.1492 40° Northeast 402 463 29,000 -500 Level Boston Center
Tue 11:00:03 PM 40.6092 -74.0558 39° Northeast 402 463 28,000 -1,400 Descending Boston Center
Tue 11:01:03 PM 40.6872 -73.9783 37° Northeast 402 463 26,200 -1,900 Descending Boston Center
Tue 11:02:03 PM 40.7697 -73.8897 39° Northeast 397 457 24,200 -1,100 Descending Boston Center
Tue 11:03:03 PM 40.8500 -73.7928 42° Northeast 392 451 24,000 -100 Descending Boston Center
Tue 11:04:03 PM 40.9386 -73.6983 39° Northeast 392 451 24,000 -350 Level Boston Center
Tue 11:05:03 PM 41.0556 -73.6953 North 380 437 23,300 -500 Descending Boston Center
Tue 11:06:03 PM 41.1678 -73.7031 357° North 392 451 23,000 -600 Descending Boston Center
Tue 11:07:03 PM 41.2844 -73.7108 357° North 397 457 22,100 -950 Descending Boston Center
Tue 11:08:03 PM 41.3992 -73.7131 359° North 403 464 21,100 -1,000 Descending Boston Center
Tue 11:09:03 PM 41.5117 -73.7208 357° North 403 464 20,100 -550 Descending Boston Center
Tue 11:10:03 PM 41.6197 -73.7286 357° North 403 464 20,000 -1,100 Descending Boston Center
Tue 11:11:03 PM 41.7364 -73.7392 356° North 388 447 17,900 -1,950 Descending Boston Center
Tue 11:12:03 PM 41.8406 -73.7469 357° North 375 432 16,100 -2,038 Descending Boston Center
Tue 11:12:49 PM 41.9197 -73.7486 359° North 370 426 14,300 -2,187 Descending Boston Center
Tue 11:13:50 PM 42.0219 -73.7536 358° North 362 417 12,200 -1,636 Descending Boston Center
Tue 11:14:50 PM 42.1175 -73.7611 357° North 346 398 11,000 -595 Descending Boston Center
Tue 11:15:51 PM 42.2114 -73.7686 357° North 332 382 11,000 -347 Level Boston Center
Tue 11:16:51 PM 42.3008 -73.7875 351° North 323 372 10,300 -857 Descending Boston Center
Tue 11:17:15 PM 42.3256 -73.7908 354° North 324 373 9,800 -1,475 Descending Boston Center
Tue 11:17:52 PM 42.3839 -73.8061 349° North 298 343 8,800 -1,500 Descending Boston Center
Tue 11:18:15 PM 42.4172 -73.8125 352° North 310 357 8,300 -1,377 Descending Boston Center
Tue 11:18:53 PM 42.4650 -73.8247 349° North 293 337 7,400 -1,300 Descending Boston Center
Tue 11:19:15 PM 42.4878 -73.8281 354° North 298 343 7,000 -1,600 Descending Boston Center
Tue 11:19:53 PM 42.5458 -73.8436 349° North 289 333 5,800 -1,700 Descending Boston Center
Tue 11:20:15 PM 42.5772 -73.8469 356° North 293 337 5,300 -1,377 Descending Boston Center
Tue 11:20:54 PM 42.6250 -73.8567 351° North 286 329 4,400 -1,200 Descending Boston Center
Tue 11:21:15 PM 42.6478 -73.8656 344° North 293 337 4,100 -400 Descending Boston Center
Tue 11:21:54 PM 42.6997 -73.8725 354° North 262 302 4,000 -100 Descending Boston Center
Tue 11:22:15 PM 42.7186 -73.8756 353° North 286 329 4,000 -436 Level Boston Center
Tue 11:22:49 PM 42.7603 -73.8822 353° North 211 243 3,600 -700 Descending Boston Center
Tue 11:23:15 PM 42.7747 -73.8883 343° North 245 282 3,300 -984 Descending Boston Center
Tue 11:23:50 PM 42.8081 -73.8778 13° North 160 184 2,600 -1,200 Descending Boston Center
Tue 11:24:15 PM 42.8186 -73.8667 38° Northeast 207 238 2,100 -1,300 Descending Boston Center
Tue 11:24:50 PM 42.8211 -73.8300 85° East 130 150 1,300 20,900 Descending Boston Center
Tue 11:25:15 PM 42.8708 -73.8536 341° North 207 238 23,000 -393 Climbing Boston Center
Tue 11:25:51 PM 42.7903 -73.8094 158° South 112 129 900  Descending Boston Center
Tue 11:26:15 PM 42.9169 -73.8406 350° North 207 238 23,000 55,250 Climbing Boston Center
Tue 11:28:00 PM 42.7491 -73.8020 172° South  Level Estimated
Tue 11:35:00 PM 42.7491 -73.8020 172° South  Level Estimated
Tue 11:36:00 PM 42.7491 -73.8020 172° South  Level Estimated

Login

Don't have an account? Register now (free) for customized features, flight alerts, and more!